sensor_id;sensor_type;location;lat;lon;timestamp;temperature;humidity
68578;SHT31;61668;45.388;11.784;2023-02-15T00:01:46;2.89;79.02
68578;SHT31;61668;45.388;11.784;2023-02-15T00:04:13;2.87;78.99
68578;SHT31;61668;45.388;11.784;2023-02-15T00:06:40;2.86;79.20
68578;SHT31;61668;45.388;11.784;2023-02-15T00:09:06;2.83;79.15
68578;SHT31;61668;45.388;11.784;2023-02-15T00:11:34;2.81;79.10
68578;SHT31;61668;45.388;11.784;2023-02-15T00:16:38;2.78;79.00
68578;SHT31;61668;45.388;11.784;2023-02-15T00:19:06;2.76;79.03
68578;SHT31;61668;45.388;11.784;2023-02-15T00:21:33;2.74;79.17
68578;SHT31;61668;45.388;11.784;2023-02-15T00:24:01;2.72;79.16
68578;SHT31;61668;45.388;11.784;2023-02-15T00:26:29;2.70;79.21
68578;SHT31;61668;45.388;11.784;2023-02-15T00:28:55;2.69;79.24
68578;SHT31;61668;45.388;11.784;2023-02-15T00:31:23;2.67;79.06
68578;SHT31;61668;45.388;11.784;2023-02-15T00:33:49;2.65;79.16
68578;SHT31;61668;45.388;11.784;2023-02-15T00:36:14;2.64;79.38
68578;SHT31;61668;45.388;11.784;2023-02-15T00:38:40;2.62;79.50
68578;SHT31;61668;45.388;11.784;2023-02-15T00:41:06;2.61;79.45
68578;SHT31;61668;45.388;11.784;2023-02-15T00:43:34;2.59;79.40
68578;SHT31;61668;45.388;11.784;2023-02-15T00:46:00;2.58;79.46
68578;SHT31;61668;45.388;11.784;2023-02-15T00:48:27;2.57;79.50
68578;SHT31;61668;45.388;11.784;2023-02-15T00:50:54;2.57;79.46
68578;SHT31;61668;45.388;11.784;2023-02-15T00:53:22;2.56;79.41
68578;SHT31;61668;45.388;11.784;2023-02-15T00:55:50;2.54;79.18
68578;SHT31;61668;45.388;11.784;2023-02-15T00:58:15;2.52;79.22
68578;SHT31;61668;45.388;11.784;2023-02-15T01:00:42;2.51;79.26
68578;SHT31;61668;45.388;11.784;2023-02-15T01:03:09;2.49;79.20
68578;SHT31;61668;45.388;11.784;2023-02-15T01:05:36;2.47;79.11
68578;SHT31;61668;45.388;11.784;2023-02-15T01:08:01;2.45;79.19
68578;SHT31;61668;45.388;11.784;2023-02-15T01:10:27;2.45;79.47
68578;SHT31;61668;45.388;11.784;2023-02-15T01:12:54;2.44;79.78
68578;SHT31;61668;45.388;11.784;2023-02-15T01:15:21;2.44;79.90
68578;SHT31;61668;45.388;11.784;2023-02-15T01:17:47;2.43;79.90
68578;SHT31;61668;45.388;11.784;2023-02-15T01:20:18;2.41;79.74
68578;SHT31;61668;45.388;11.784;2023-02-15T01:22:49;2.41;79.62
68578;SHT31;61668;45.388;11.784;2023-02-15T01:25:16;2.39;79.60
68578;SHT31;61668;45.388;11.784;2023-02-15T01:27:43;2.37;79.54
68578;SHT31;61668;45.388;11.784;2023-02-15T01:30:09;2.37;79.86
68578;SHT31;61668;45.388;11.784;2023-02-15T01:32:36;2.36;80.11
68578;SHT31;61668;45.388;11.784;2023-02-15T01:35:01;2.34;80.04
68578;SHT31;61668;45.388;11.784;2023-02-15T01:37:29;2.32;79.93
68578;SHT31;61668;45.388;11.784;2023-02-15T01:39:56;2.31;79.95
68578;SHT31;61668;45.388;11.784;2023-02-15T01:42:23;2.30;79.86
68578;SHT31;61668;45.388;11.784;2023-02-15T01:44:54;2.28;79.87
68578;SHT31;61668;45.388;11.784;2023-02-15T01:56:03;2.21;80.10
68578;SHT31;61668;45.388;11.784;2023-02-15T01:58:36;2.20;80.09
68578;SHT31;61668;45.388;11.784;2023-02-15T02:01:02;2.20;80.07
68578;SHT31;61668;45.388;11.784;2023-02-15T02:06:29;2.17;79.92
68578;SHT31;61668;45.388;11.784;2023-02-15T02:08:57;2.17;79.96
68578;SHT31;61668;45.388;11.784;2023-02-15T02:11:23;2.15;80.13
68578;SHT31;61668;45.388;11.784;2023-02-15T02:13:50;2.14;80.34
68578;SHT31;61668;45.388;11.784;2023-02-15T02:16:20;2.14;80.52
68578;SHT31;61668;45.388;11.784;2023-02-15T02:25:03;2.11;80.47
68578;SHT31;61668;45.388;11.784;2023-02-15T02:34:08;2.03;80.41
68578;SHT31;61668;45.388;11.784;2023-02-15T02:45:08;1.93;80.84
68578;SHT31;61668;45.388;11.784;2023-02-15T02:50:40;1.89;80.99
68578;SHT31;61668;45.388;11.784;2023-02-15T02:53:07;1.89;81.07
68578;SHT31;61668;45.388;11.784;2023-02-15T02:58:45;1.88;81.27
68578;SHT31;61668;45.388;11.784;2023-02-15T03:01:31;1.87;81.33
68578;SHT31;61668;45.388;11.784;2023-02-15T03:04:09;1.86;81.33
68578;SHT31;61668;45.388;11.784;2023-02-15T03:07:00;1.84;81.24
68578;SHT31;61668;45.388;11.784;2023-02-15T03:09:34;1.81;81.38
68578;SHT31;61668;45.388;11.784;2023-02-15T03:12:08;1.81;81.45
68578;SHT31;61668;45.388;11.784;2023-02-15T03:14:39;1.78;81.40
68578;SHT31;61668;45.388;11.784;2023-02-15T03:17:07;1.77;81.35
68578;SHT31;61668;45.388;11.784;2023-02-15T03:19:34;1.75;81.22
68578;SHT31;61668;45.388;11.784;2023-02-15T03:22:36;1.73;81.12
68578;SHT31;61668;45.388;11.784;2023-02-15T03:27:37;1.68;81.24
68578;SHT31;61668;45.388;11.784;2023-02-15T03:30:10;1.66;81.35
68578;SHT31;61668;45.388;11.784;2023-02-15T03:32:38;1.66;81.64
68578;SHT31;61668;45.388;11.784;2023-02-15T03:35:06;1.63;81.79
68578;SHT31;61668;45.388;11.784;2023-02-15T03:37:44;1.61;81.81
68578;SHT31;61668;45.388;11.784;2023-02-15T03:40:28;1.61;81.90
68578;SHT31;61668;45.388;11.784;2023-02-15T03:43:26;1.59;82.10
68578;SHT31;61668;45.388;11.784;2023-02-15T03:49:12;1.56;82.11
68578;SHT31;61668;45.388;11.784;2023-02-15T03:51:46;1.54;82.10
68578;SHT31;61668;45.388;11.784;2023-02-15T03:54:17;1.54;82.21
68578;SHT31;61668;45.388;11.784;2023-02-15T03:59:56;1.52;82.25
68578;SHT31;61668;45.388;11.784;2023-02-15T04:02:49;1.50;82.16
68578;SHT31;61668;45.388;11.784;2023-02-15T04:05:29;1.48;82.17
68578;SHT31;61668;45.388;11.784;2023-02-15T04:07:54;1.47;82.20
68578;SHT31;61668;45.388;11.784;2023-02-15T04:10:20;1.44;82.27
68578;SHT31;61668;45.388;11.784;2023-02-15T04:13:04;1.43;82.31
68578;SHT31;61668;45.388;11.784;2023-02-15T04:15:30;1.42;82.31
68578;SHT31;61668;45.388;11.784;2023-02-15T04:18:14;1.40;82.28
68578;SHT31;61668;45.388;11.784;2023-02-15T04:20:43;1.38;82.21
68578;SHT31;61668;45.388;11.784;2023-02-15T04:23:28;1.36;82.37
68578;SHT31;61668;45.388;11.784;2023-02-15T04:26:12;1.34;82.54
68578;SHT31;61668;45.388;11.784;2023-02-15T04:28:38;1.33;82.46
68578;SHT31;61668;45.388;11.784;2023-02-15T04:31:04;1.30;82.35
68578;SHT31;61668;45.388;11.784;2023-02-15T04:33:29;1.27;82.28
68578;SHT31;61668;45.388;11.784;2023-02-15T04:35:55;1.25;82.29
68578;SHT31;61668;45.388;11.784;2023-02-15T04:38:21;1.22;82.30
68578;SHT31;61668;45.388;11.784;2023-02-15T04:40:51;1.21;82.33
68578;SHT31;61668;45.388;11.784;2023-02-15T04:43:18;1.20;82.47
68578;SHT31;61668;45.388;11.784;2023-02-15T04:45:48;1.18;82.49
68578;SHT31;61668;45.388;11.784;2023-02-15T04:48:16;1.18;82.44
68578;SHT31;61668;45.388;11.784;2023-02-15T04:50:43;1.18;82.54
68578;SHT31;61668;45.388;11.784;2023-02-15T04:53:10;1.17;82.52
68578;SHT31;61668;45.388;11.784;2023-02-15T04:55:36;1.16;82.53
68578;SHT31;61668;45.388;11.784;2023-02-15T04:58:01;1.15;82.49
68578;SHT31;61668;45.388;11.784;2023-02-15T05:00:27;1.14;82.50
68578;SHT31;61668;45.388;11.784;2023-02-15T05:02:53;1.13;82.49
68578;SHT31;61668;45.388;11.784;2023-02-15T05:05:19;1.10;82.40
68578;SHT31;61668;45.388;11.784;2023-02-15T05:07:44;1.09;82.41
68578;SHT31;61668;45.388;11.784;2023-02-15T05:10:10;1.07;82.51
68578;SHT31;61668;45.388;11.784;2023-02-15T05:12:36;1.05;82.62
68578;SHT31;61668;45.388;11.784;2023-02-15T05:15:01;1.05;82.61
68578;SHT31;61668;45.388;11.784;2023-02-15T05:17:27;1.03;82.56
68578;SHT31;61668;45.388;11.784;2023-02-15T05:19:53;1.02;82.45
68578;SHT31;61668;45.388;11.784;2023-02-15T05:22:19;1.00;82.36
68578;SHT31;61668;45.388;11.784;2023-02-15T05:24:45;0.99;82.30
68578;SHT31;61668;45.388;11.784;2023-02-15T05:27:29;0.97;82.22
68578;SHT31;61668;45.388;11.784;2023-02-15T05:30:13;0.94;82.20
68578;SHT31;61668;45.388;11.784;2023-02-15T05:32:39;0.92;82.20
68578;SHT31;61668;45.388;11.784;2023-02-15T05:35:05;0.89;82.22
68578;SHT31;61668;45.388;11.784;2023-02-15T05:37:32;0.87;82.30
68578;SHT31;61668;45.388;11.784;2023-02-15T05:39:58;0.87;82.33
68578;SHT31;61668;45.388;11.784;2023-02-15T05:42:24;0.85;82.40
68578;SHT31;61668;45.388;11.784;2023-02-15T05:44:49;0.83;82.38
68578;SHT31;61668;45.388;11.784;2023-02-15T05:47:15;0.83;82.30
68578;SHT31;61668;45.388;11.784;2023-02-15T05:49:41;0.81;82.31
68578;SHT31;61668;45.388;11.784;2023-02-15T05:52:07;0.80;82.28
68578;SHT31;61668;45.388;11.784;2023-02-15T05:54:33;0.78;82.21
68578;SHT31;61668;45.388;11.784;2023-02-15T05:56:58;0.76;82.20
68578;SHT31;61668;45.388;11.784;2023-02-15T05:59:24;0.75;82.20
68578;SHT31;61668;45.388;11.784;2023-02-15T06:01:50;0.73;82.24
68578;SHT31;61668;45.388;11.784;2023-02-15T06:04:16;0.72;82.30
68578;SHT31;61668;45.388;11.784;2023-02-15T06:06:41;0.72;82.30
68578;SHT31;61668;45.388;11.784;2023-02-15T06:09:07;0.71;82.29
68578;SHT31;61668;45.388;11.784;2023-02-15T06:11:33;0.70;82.33
68578;SHT31;61668;45.388;11.784;2023-02-15T06:13:58;0.69;82.40
68578;SHT31;61668;45.388;11.784;2023-02-15T06:16:24;0.67;82.40
68578;SHT31;61668;45.388;11.784;2023-02-15T06:18:50;0.66;82.40
68578;SHT31;61668;45.388;11.784;2023-02-15T06:21:16;0.66;82.32
68578;SHT31;61668;45.388;11.784;2023-02-15T06:23:41;0.65;82.49
68578;SHT31;61668;45.388;11.784;2023-02-15T06:26:08;0.65;82.78
68578;SHT31;61668;45.388;11.784;2023-02-15T06:28:33;0.66;82.98
68578;SHT31;61668;45.388;11.784;2023-02-15T06:30:59;0.67;82.96
68578;SHT31;61668;45.388;11.784;2023-02-15T06:33:25;0.68;82.91
68578;SHT31;61668;45.388;11.784;2023-02-15T06:35:51;0.69;82.98
68578;SHT31;61668;45.388;11.784;2023-02-15T06:38:17;0.70;83.00
68578;SHT31;61668;45.388;11.784;2023-02-15T06:40:42;0.72;83.00
68578;SHT31;61668;45.388;11.784;2023-02-15T06:43:08;0.74;83.00
68578;SHT31;61668;45.388;11.784;2023-02-15T06:45:34;0.75;83.01
68578;SHT31;61668;45.388;11.784;2023-02-15T06:47:59;0.78;83.10
68578;SHT31;61668;45.388;11.784;2023-02-15T06:50:25;0.83;83.10
68578;SHT31;61668;45.388;11.784;2023-02-15T06:52:55;0.85;83.03
68578;SHT31;61668;45.388;11.784;2023-02-15T06:55:22;0.90;83.15
68578;SHT31;61668;45.388;11.784;2023-02-15T06:57:48;0.96;83.41
68578;SHT31;61668;45.388;11.784;2023-02-15T07:00:13;1.00;83.58
68578;SHT31;61668;45.388;11.784;2023-02-15T07:02:40;1.07;83.62
68578;SHT31;61668;45.388;11.784;2023-02-15T07:05:05;1.13;83.61
68578;SHT31;61668;45.388;11.784;2023-02-15T07:07:31;1.19;83.60
68578;SHT31;61668;45.388;11.784;2023-02-15T07:09:57;1.25;83.66
68578;SHT31;61668;45.388;11.784;2023-02-15T07:12:23;1.32;83.78
68578;SHT31;61668;45.388;11.784;2023-02-15T07:15:08;1.40;83.80
68578;SHT31;61668;45.388;11.784;2023-02-15T07:17:38;1.48;83.77
68578;SHT31;61668;45.388;11.784;2023-02-15T07:20:05;1.58;83.71
68578;SHT31;61668;45.388;11.784;2023-02-15T07:22:40;1.76;83.68
68578;SHT31;61668;45.388;11.784;2023-02-15T07:25:06;1.99;83.68
68578;SHT31;61668;45.388;11.784;2023-02-15T07:27:34;2.27;83.39
68578;SHT31;61668;45.388;11.784;2023-02-15T07:30:01;2.55;83.22
68578;SHT31;61668;45.388;11.784;2023-02-15T07:32:28;2.85;82.90
68578;SHT31;61668;45.388;11.784;2023-02-15T07:34:55;3.15;82.73
68578;SHT31;61668;45.388;11.784;2023-02-15T07:37:22;3.52;82.48
68578;SHT31;61668;45.388;11.784;2023-02-15T07:39:48;3.88;81.94
68578;SHT31;61668;45.388;11.784;2023-02-15T07:42:13;4.23;81.32
68578;SHT31;61668;45.388;11.784;2023-02-15T07:44:39;4.56;80.62
68578;SHT31;61668;45.388;11.784;2023-02-15T07:47:05;4.88;80.01
68578;SHT31;61668;45.388;11.784;2023-02-15T07:49:31;5.25;79.63
68578;SHT31;61668;45.388;11.784;2023-02-15T07:51:57;5.63;79.02
68578;SHT31;61668;45.388;11.784;2023-02-15T07:54:22;6.02;78.43
68578;SHT31;61668;45.388;11.784;2023-02-15T07:56:48;6.44;77.75
68578;SHT31;61668;45.388;11.784;2023-02-15T07:59:13;6.84;77.04
68578;SHT31;61668;45.388;11.784;2023-02-15T08:01:39;7.25;76.32
68578;SHT31;61668;45.388;11.784;2023-02-15T08:04:05;7.65;75.50
68578;SHT31;61668;45.388;11.784;2023-02-15T08:06:33;8.04;74.68
68578;SHT31;61668;45.388;11.784;2023-02-15T08:09:03;8.41;73.77
68578;SHT31;61668;45.388;11.784;2023-02-15T08:11:34;8.76;72.85
68578;SHT31;61668;45.388;11.784;2023-02-15T08:14:03;9.12;72.18
68578;SHT31;61668;45.388;11.784;2023-02-15T08:16:51;9.48;71.14
68578;SHT31;61668;45.388;11.784;2023-02-15T08:19:25;9.85;70.45
68578;SHT31;61668;45.388;11.784;2023-02-15T08:21:57;10.22;69.58
68578;SHT31;61668;45.388;11.784;2023-02-15T08:24:25;10.60;68.81
68578;SHT31;61668;45.388;11.784;2023-02-15T08:26:53;10.98;67.89
68578;SHT31;61668;45.388;11.784;2023-02-15T08:29:20;11.35;66.98
68578;SHT31;61668;45.388;11.784;2023-02-15T08:31:50;11.74;66.08
68578;SHT31;61668;45.388;11.784;2023-02-15T08:34:20;12.12;65.29
68578;SHT31;61668;45.388;11.784;2023-02-15T08:36:46;12.51;64.30
68578;SHT31;61668;45.388;11.784;2023-02-15T08:39:12;12.87;63.48
68578;SHT31;61668;45.388;11.784;2023-02-15T08:41:42;13.25;62.72
68578;SHT31;61668;45.388;11.784;2023-02-15T08:44:10;13.61;61.80
68578;SHT31;61668;45.388;11.784;2023-02-15T08:46:37;13.95;61.01
68578;SHT31;61668;45.388;11.784;2023-02-15T08:49:06;14.32;60.48
68578;SHT31;61668;45.388;11.784;2023-02-15T08:51:33;14.69;59.27
68578;SHT31;61668;45.388;11.784;2023-02-15T08:54:05;15.00;58.61
68578;SHT31;61668;45.388;11.784;2023-02-15T08:56:35;15.30;57.73
68578;SHT31;61668;45.388;11.784;2023-02-15T08:59:03;15.58;56.83
68578;SHT31;61668;45.388;11.784;2023-02-15T09:01:31;15.86;55.98
68578;SHT31;61668;45.388;11.784;2023-02-15T09:03:59;16.10;55.23
68578;SHT31;61668;45.388;11.784;2023-02-15T09:06:29;16.33;55.03
68578;SHT31;61668;45.388;11.784;2023-02-15T09:08:55;16.65;54.33
68578;SHT31;61668;45.388;11.784;2023-02-15T09:11:28;16.98;53.53
68578;SHT31;61668;45.388;11.784;2023-02-15T09:14:00;17.33;52.81
68578;SHT31;61668;45.388;11.784;2023-02-15T09:16:32;17.71;51.81
68578;SHT31;61668;45.388;11.784;2023-02-15T09:19:00;18.12;51.11
68578;SHT31;61668;45.388;11.784;2023-02-15T09:21:29;18.48;50.09
68578;SHT31;61668;45.388;11.784;2023-02-15T09:23:58;18.79;49.00
68578;SHT31;61668;45.388;11.784;2023-02-15T09:26:28;19.11;48.35
68578;SHT31;61668;45.388;11.784;2023-02-15T09:28:57;19.38;47.47
68578;SHT31;61668;45.388;11.784;2023-02-15T09:31:45;19.61;46.91
68578;SHT31;61668;45.388;11.784;2023-02-15T09:34:14;19.84;46.13
68578;SHT31;61668;45.388;11.784;2023-02-15T09:36:43;20.02;45.79
68578;SHT31;61668;45.388;11.784;2023-02-15T09:39:10;20.25;45.42
68578;SHT31;61668;45.388;11.784;2023-02-15T10:05:24;18.41;44.90
68578;SHT31;61668;45.388;11.784;2023-02-15T10:28:26;16.16;47.44
68578;SHT31;61668;45.388;11.784;2023-02-15T10:31:12;15.99;47.41
68578;SHT31;61668;45.388;11.784;2023-02-15T10:34:17;15.83;47.53
68578;SHT31;61668;45.388;11.784;2023-02-15T10:37:46;15.68;47.72
68578;SHT31;61668;45.388;11.784;2023-02-15T10:43:49;15.45;48.38
68578;SHT31;61668;45.388;11.784;2023-02-15T10:52:42;15.15;48.58
68578;SHT31;61668;45.388;11.784;2023-02-15T11:04:33;14.75;48.64
68578;SHT31;61668;45.388;11.784;2023-02-15T11:07:13;14.70;49.03
68578;SHT31;61668;45.388;11.784;2023-02-15T11:09:52;14.63;49.07
68578;SHT31;61668;45.388;11.784;2023-02-15T11:12:36;14.60;49.15
68578;SHT31;61668;45.388;11.784;2023-02-15T11:15:04;14.59;49.43
68578;SHT31;61668;45.388;11.784;2023-02-15T11:17:49;14.60;49.55
68578;SHT31;61668;45.388;11.784;2023-02-15T11:20:27;14.58;49.71
68578;SHT31;61668;45.388;11.784;2023-02-15T11:22:58;14.59;49.59
68578;SHT31;61668;45.388;11.784;2023-02-15T11:25:30;14.59;49.69
68578;SHT31;61668;45.388;11.784;2023-02-15T11:28:03;14.61;50.10
68578;SHT31;61668;45.388;11.784;2023-02-15T11:30:41;14.63;50.04
68578;SHT31;61668;45.388;11.784;2023-02-15T11:36:18;14.66;49.26
68578;SHT31;61668;45.388;11.784;2023-02-15T11:38:51;14.65;49.02
68578;SHT31;61668;45.388;11.784;2023-02-15T11:41:28;14.66;48.72
68578;SHT31;61668;45.388;11.784;2023-02-15T11:44:10;14.67;48.26
68578;SHT31;61668;45.388;11.784;2023-02-15T11:46:42;14.68;48.00
68578;SHT31;61668;45.388;11.784;2023-02-15T11:52:00;14.74;48.82
68578;SHT31;61668;45.388;11.784;2023-02-15T11:54:32;14.77;48.89
68578;SHT31;61668;45.388;11.784;2023-02-15T11:57:03;14.81;48.89
68578;SHT31;61668;45.388;11.784;2023-02-15T11:59:42;14.84;48.64
68578;SHT31;61668;45.388;11.784;2023-02-15T12:02:16;14.87;48.45
68578;SHT31;61668;45.388;11.784;2023-02-15T12:04:52;14.92;48.47
68578;SHT31;61668;45.388;11.784;2023-02-15T12:07:24;14.97;48.68
68578;SHT31;61668;45.388;11.784;2023-02-15T12:15:42;15.11;47.29
68578;SHT31;61668;45.388;11.784;2023-02-15T12:18:34;15.16;46.91
68578;SHT31;61668;45.388;11.784;2023-02-15T12:21:00;15.23;47.09
68578;SHT31;61668;45.388;11.784;2023-02-15T12:23:33;15.27;46.70
68578;SHT31;61668;45.388;11.784;2023-02-15T12:26:00;15.29;46.54
68578;SHT31;61668;45.388;11.784;2023-02-15T12:31:00;15.34;46.44
68578;SHT31;61668;45.388;11.784;2023-02-15T12:33:32;15.37;46.00
68578;SHT31;61668;45.388;11.784;2023-02-15T12:36:12;15.41;46.20
68578;SHT31;61668;45.388;11.784;2023-02-15T12:41:36;15.49;45.98
68578;SHT31;61668;45.388;11.784;2023-02-15T12:44:21;15.56;45.89
68578;SHT31;61668;45.388;11.784;2023-02-15T12:49:28;15.61;45.70
68578;SHT31;61668;45.388;11.784;2023-02-15T12:52:03;15.65;45.65
68578;SHT31;61668;45.388;11.784;2023-02-15T12:54:46;15.69;45.32
68578;SHT31;61668;45.388;11.784;2023-02-15T12:59:48;15.78;44.58
68578;SHT31;61668;45.388;11.784;2023-02-15T13:02:19;15.82;44.35
68578;SHT31;61668;45.388;11.784;2023-02-15T13:04:51;15.86;43.90
68578;SHT31;61668;45.388;11.784;2023-02-15T13:07:19;15.88;43.55
68578;SHT31;61668;45.388;11.784;2023-02-15T13:09:45;15.89;43.36
68578;SHT31;61668;45.388;11.784;2023-02-15T13:14:48;15.91;43.16
68578;SHT31;61668;45.388;11.784;2023-02-15T13:17:17;15.91;42.76
68578;SHT31;61668;45.388;11.784;2023-02-15T13:19:52;15.92;42.96
68578;SHT31;61668;45.388;11.784;2023-02-15T13:22:22;15.95;43.41
68578;SHT31;61668;45.388;11.784;2023-02-15T13:25:14;15.97;43.22
68578;SHT31;61668;45.388;11.784;2023-02-15T13:27:48;15.98;43.34
68578;SHT31;61668;45.388;11.784;2023-02-15T13:30:27;15.98;43.60
68578;SHT31;61668;45.388;11.784;2023-02-15T13:33:04;15.98;43.74
68578;SHT31;61668;45.388;11.784;2023-02-15T13:35:43;15.96;43.68
68578;SHT31;61668;45.388;11.784;2023-02-15T13:38:33;15.95;43.77
68578;SHT31;61668;45.388;11.784;2023-02-15T13:41:21;15.95;43.91
68578;SHT31;61668;45.388;11.784;2023-02-15T13:44:15;15.96;43.84
68578;SHT31;61668;45.388;11.784;2023-02-15T14:01:56;16.08;44.53
68578;SHT31;61668;45.388;11.784;2023-02-15T14:04:31;16.10;44.83
68578;SHT31;61668;45.388;11.784;2023-02-15T14:18:35;16.20;45.28
68578;SHT31;61668;45.388;11.784;2023-02-15T14:29:56;16.18;46.16
68578;SHT31;61668;45.388;11.784;2023-02-15T14:32:27;16.16;46.45
68578;SHT31;61668;45.388;11.784;2023-02-15T14:35:03;16.18;46.48
68578;SHT31;61668;45.388;11.784;2023-02-15T14:46:23;16.13;47.20
68578;SHT31;61668;45.388;11.784;2023-02-15T14:49:13;16.09;47.36
68578;SHT31;61668;45.388;11.784;2023-02-15T14:56:41;16.04;47.38
68578;SHT31;61668;45.388;11.784;2023-02-15T14:59:14;16.02;47.54
68578;SHT31;61668;45.388;11.784;2023-02-15T15:07:14;15.91;47.87
68578;SHT31;61668;45.388;11.784;2023-02-15T15:09:48;15.88;47.99
68578;SHT31;61668;45.388;11.784;2023-02-15T15:12:46;15.84;48.06
68578;SHT31;61668;45.388;11.784;2023-02-15T15:15:13;15.81;48.02
68578;SHT31;61668;45.388;11.784;2023-02-15T15:43:51;15.34;49.57
68578;SHT31;61668;45.388;11.784;2023-02-15T15:50:14;15.20;50.00
68578;SHT31;61668;45.388;11.784;2023-02-15T15:52:44;15.13;50.21
68578;SHT31;61668;45.388;11.784;2023-02-15T15:55:20;15.05;50.45
68578;SHT31;61668;45.388;11.784;2023-02-15T15:57:52;14.96;50.60
68578;SHT31;61668;45.388;11.784;2023-02-15T16:03:24;14.78;50.78
68578;SHT31;61668;45.388;11.784;2023-02-15T16:05:54;14.69;51.07
68578;SHT31;61668;45.388;11.784;2023-02-15T16:08:33;14.59;51.36
68578;SHT31;61668;45.388;11.784;2023-02-15T16:11:01;14.47;51.68
68578;SHT31;61668;45.388;11.784;2023-02-15T16:13:50;14.34;52.01
68578;SHT31;61668;45.388;11.784;2023-02-15T16:16:21;14.20;52.27
68578;SHT31;61668;45.388;11.784;2023-02-15T16:18:53;14.06;52.63
68578;SHT31;61668;45.388;11.784;2023-02-15T16:21:34;13.91;52.96
68578;SHT31;61668;45.388;11.784;2023-02-15T16:24:12;13.76;53.36
68578;SHT31;61668;45.388;11.784;2023-02-15T16:26:59;13.60;53.86
68578;SHT31;61668;45.388;11.784;2023-02-15T16:30:18;13.42;54.36
68578;SHT31;61668;45.388;11.784;2023-02-15T16:35:55;13.08;54.93
68578;SHT31;61668;45.388;11.784;2023-02-15T16:41:14;12.76;55.51
68578;SHT31;61668;45.388;11.784;2023-02-15T16:43:46;12.60;55.94
68578;SHT31;61668;45.388;11.784;2023-02-15T16:46:17;12.45;56.51
68578;SHT31;61668;45.388;11.784;2023-02-15T16:48:52;12.28;56.81
68578;SHT31;61668;45.388;11.784;2023-02-15T16:51:24;12.14;57.03
68578;SHT31;61668;45.388;11.784;2023-02-15T16:53:52;11.99;57.31
68578;SHT31;61668;45.388;11.784;2023-02-15T16:56:24;11.85;57.58
68578;SHT31;61668;45.388;11.784;2023-02-15T16:58:58;11.72;57.86
68578;SHT31;61668;45.388;11.784;2023-02-15T17:01:29;11.57;58.14
68578;SHT31;61668;45.388;11.784;2023-02-15T17:04:13;11.44;58.45
68578;SHT31;61668;45.388;11.784;2023-02-15T17:06:59;11.28;58.59
68578;SHT31;61668;45.388;11.784;2023-02-15T17:09:40;11.14;59.06
68578;SHT31;61668;45.388;11.784;2023-02-15T17:15:27;10.85;59.51
68578;SHT31;61668;45.388;11.784;2023-02-15T17:18:18;10.72;59.87
68578;SHT31;61668;45.388;11.784;2023-02-15T17:20:47;10.61;60.35
68578;SHT31;61668;45.388;11.784;2023-02-15T17:23:21;10.52;60.44
68578;SHT31;61668;45.388;11.784;2023-02-15T17:25:51;10.42;60.83
68578;SHT31;61668;45.388;11.784;2023-02-15T17:28:19;10.32;61.13
68578;SHT31;61668;45.388;11.784;2023-02-15T17:30:49;10.24;61.58
68578;SHT31;61668;45.388;11.784;2023-02-15T17:33:38;10.14;61.99
68578;SHT31;61668;45.388;11.784;2023-02-15T17:36:05;10.06;62.25
68578;SHT31;61668;45.388;11.784;2023-02-15T17:38:58;9.97;62.66
68578;SHT31;61668;45.388;11.784;2023-02-15T17:41:33;9.86;62.86
68578;SHT31;61668;45.388;11.784;2023-02-15T17:44:02;9.77;63.17
68578;SHT31;61668;45.388;11.784;2023-02-15T17:46:29;9.70;63.34
68578;SHT31;61668;45.388;11.784;2023-02-15T17:49:00;9.61;63.56
68578;SHT31;61668;45.388;11.784;2023-02-15T17:51:27;9.52;63.65
68578;SHT31;61668;45.388;11.784;2023-02-15T17:53:53;9.44;63.91
68578;SHT31;61668;45.388;11.784;2023-02-15T17:56:37;9.37;64.32
68578;SHT31;61668;45.388;11.784;2023-02-15T17:59:04;9.30;64.60
68578;SHT31;61668;45.388;11.784;2023-02-15T18:01:36;9.23;64.61
68578;SHT31;61668;45.388;11.784;2023-02-15T18:04:30;9.14;64.69
68578;SHT31;61668;45.388;11.784;2023-02-15T18:07:16;9.07;65.01
68578;SHT31;61668;45.388;11.784;2023-02-15T18:10:05;9.00;65.32
68578;SHT31;61668;45.388;11.784;2023-02-15T18:13:01;8.91;65.48
68578;SHT31;61668;45.388;11.784;2023-02-15T18:15:27;8.82;65.68
68578;SHT31;61668;45.388;11.784;2023-02-15T18:17:53;8.73;65.94
68578;SHT31;61668;45.388;11.784;2023-02-15T18:20:23;8.65;66.12
68578;SHT31;61668;45.388;11.784;2023-02-15T18:22:58;8.57;66.25
68578;SHT31;61668;45.388;11.784;2023-02-15T18:25:26;8.49;66.49
68578;SHT31;61668;45.388;11.784;2023-02-15T18:27:52;8.40;66.61
68578;SHT31;61668;45.388;11.784;2023-02-15T18:30:19;8.32;66.84
68578;SHT31;61668;45.388;11.784;2023-02-15T18:32:48;8.23;66.97
68578;SHT31;61668;45.388;11.784;2023-02-15T18:35:20;8.15;67.31
68578;SHT31;61668;45.388;11.784;2023-02-15T18:37:51;8.07;67.55
68578;SHT31;61668;45.388;11.784;2023-02-15T18:40:19;8.00;67.75
68578;SHT31;61668;45.388;11.784;2023-02-15T18:42:47;7.92;67.85
68578;SHT31;61668;45.388;11.784;2023-02-15T18:45:26;7.86;68.12
68578;SHT31;61668;45.388;11.784;2023-02-15T18:47:57;7.78;68.58
68578;SHT31;61668;45.388;11.784;2023-02-15T18:50:23;7.71;68.81
68578;SHT31;61668;45.388;11.784;2023-02-15T18:52:52;7.63;68.74
68578;SHT31;61668;45.388;11.784;2023-02-15T18:55:19;7.56;68.74
68578;SHT31;61668;45.388;11.784;2023-02-15T18:57:52;7.50;68.67
68578;SHT31;61668;45.388;11.784;2023-02-15T19:00:22;7.45;69.05
68578;SHT31;61668;45.388;11.784;2023-02-15T19:02:52;7.38;69.61
68578;SHT31;61668;45.388;11.784;2023-02-15T19:05:18;7.32;69.68
68578;SHT31;61668;45.388;11.784;2023-02-15T19:07:46;7.29;69.97
68578;SHT31;61668;45.388;11.784;2023-02-15T19:10:17;7.25;70.16
68578;SHT31;61668;45.388;11.784;2023-02-15T19:12:49;7.21;70.23
68578;SHT31;61668;45.388;11.784;2023-02-15T19:15:17;7.15;70.32
68578;SHT31;61668;45.388;11.784;2023-02-15T19:17:48;7.10;70.52
68578;SHT31;61668;45.388;11.784;2023-02-15T19:20:16;7.04;70.61
68578;SHT31;61668;45.388;11.784;2023-02-15T19:22:49;7.01;70.71
68578;SHT31;61668;45.388;11.784;2023-02-15T19:25:20;6.95;70.78
68578;SHT31;61668;45.388;11.784;2023-02-15T19:27:51;6.91;70.75
68578;SHT31;61668;45.388;11.784;2023-02-15T19:30:26;6.86;70.89
68578;SHT31;61668;45.388;11.784;2023-02-15T19:32:55;6.80;70.99
68578;SHT31;61668;45.388;11.784;2023-02-15T19:35:23;6.76;71.01
68578;SHT31;61668;45.388;11.784;2023-02-15T19:37:57;6.71;71.13
68578;SHT31;61668;45.388;11.784;2023-02-15T19:40:27;6.66;71.16
68578;SHT31;61668;45.388;11.784;2023-02-15T19:42:55;6.61;71.29
68578;SHT31;61668;45.388;11.784;2023-02-15T19:45:24;6.56;71.38
68578;SHT31;61668;45.388;11.784;2023-02-15T19:47:54;6.50;71.40